Latest Weather Observations for Richmond

IDQ60801

Issued at 6:02 pm EST Monday 25 September 2017 (issued every 30 minutes, with the page automatically refreshed every 10 minutes)

About weather observations | Map of weather stations | Latest weather observations for QLD | Other Formats
Station Details ID: 030161 Name: RICHMOND AIRPORT Lat: -20.70 Lon: 143.12 Height: 206.3 m
Data from the previous 72 hours. | See also: Recent months at Richmond
Date/Time
EST
Temp
°C
App
Temp
°C
Dew
Point
°C
Rel
Hum
%
Delta-T
°C
Wind Press
QNH
hPa
Press
MSL
hPa
Rain since
9am
mm
Dir  Spd
km/h
Gust
km/h
Spd
kts
Gust
kts
25/06:00pm 34.3 30.9 -0.4 11 17.1 SSW 7 9 4 5 1010.1 1009.1 0.0
25/05:30pm 35.5 31.5 0.6 11 17.6 SSW 11 19 6 10 1009.9 1008.9 0.0
25/05:00pm 36.4 33.3 -0.1 10 18.3 NNW 6 11 3 6 1009.7 1008.7 0.0
25/04:30pm 36.6 32.9 0.1 10 18.4 ENE 9 17 5 9 1009.6 1008.6 0.0
25/04:00pm 36.7 33.6 0.1 10 18.5 E 6 13 3 7 1009.8 1008.8 0.0
25/03:30pm 36.9 33.6 0.3 10 18.5 SSW 7 15 4 8 1009.9 1008.9 0.0
25/03:00pm 36.8 33.5 0.2 10 18.5 WSW 7 17 4 9 1010.3 1009.3 0.0
25/02:30pm 36.2 32.5 -0.2 10 18.2 WSW 9 15 5 8 1010.5 1009.5 0.0
25/02:00pm 36.4 31.9 -0.1 10 18.3 NNW 13 20 7 11 1011.1 1010.1 0.0
25/01:30pm 36.3 32.2 -0.2 10 18.3 WNW 11 20 6 11 1011.5 1010.5 0.0
25/01:00pm 35.9 31.2 0.9 11 17.8 NW 15 28 8 15 1012.0 1011.0 0.0
25/12:30pm 35.9 30.3 0.9 11 17.8 NNW 20 32 11 17 1012.4 1011.4 0.0
25/12:00pm 34.8 28.6 0.0 11 17.3 NNW 22 35 12 19 1012.7 1011.7 0.0
25/11:30am 34.2 27.6 1.9 13 16.5 NNW 26 33 14 18 1013.3 1012.4 0.0
25/11:00am 33.3 25.3 0.1 12 16.4 N 32 41 17 22 1013.5 1012.6 0.0
25/10:30am 32.7 25.5 0.7 13 15.9 N 28 41 15 22 1014.3 1013.4 0.0
25/10:00am 32.6 25.4 0.6 13 15.9 N 28 39 15 21 1014.7 1013.7 0.0
25/09:30am 30.9 23.8 1.3 15 14.7 N 28 41 15 22 1014.9 1013.9 0.0
25/09:00am 28.8 21.2 2.9 19 13.0 N 32 43 17 23 1014.9 1013.9 0.0
25/08:30am 27.6 21.5 4.6 23 11.8 N 26 39 14 21 1014.9 1013.9 0.0
25/08:00am 26.2 19.7 2.8 22 11.5 N 26 37 14 20 1014.6 1013.6 0.0
25/07:47am 25.5 19.9 3.5 24 10.9 N 22 39 12 21 1014.5 1013.5 0.0
25/07:30am 22.8 19.1 4.3 30 9.2 NNE 13 19 7 10 1014.3 1013.4 0.0
25/07:00am 20.5 16.4 4.1 34 8.0 NNE 15 19 8 10 1013.9 1013.0 0.0
25/06:30am 18.7 14.6 4.5 39 6.9 NE 15 17 8 9 1013.5 1012.6 0.0
25/06:00am 17.8 14.7 3.7 39 6.7 ESE 9 13 5 7 1013.0 1012.1 0.0
25/05:30am 20.2 16.9 4.3 35 7.7 NNE 11 13 6 7 1012.6 1011.6 0.0
25/05:00am 20.4 16.5 3.6 33 8.1 N 13 19 7 10 1012.1 1011.1 0.0
25/04:30am 21.0 16.1 4.1 33 8.2 NNW 19 24 10 13 1011.9 1010.9 0.0
25/04:00am 20.0 16.1 3.3 33 8.0 NNE 13 17 7 9 1011.0 1010.0 0.0
25/03:30am 22.2 17.1 4.3 31 8.8 NNE 20 24 11 13 1010.8 1009.8 0.0
25/03:00am 21.0 17.0 2.8 30 8.7 NE 13 17 7 9 1011.0 1010.0 0.0
25/02:30am 22.6 18.5 2.1 26 9.7 NNE 13 17 7 9 1011.1 1010.1 0.0
25/02:00am 24.4 19.6 2.5 24 10.6 NE 17 20 9 11 1011.2 1010.2 0.0
25/01:30am 25.4 20.5 2.2 22 11.3 NE 17 22 9 12 1011.3 1010.3 0.0
25/01:00am 25.0 20.2 0.5 20 11.5 NE 15 20 8 11 1011.3 1010.3 0.0
25/12:30am 26.0 20.8 -0.1 18 12.2 NE 17 24 9 13 1011.4 1010.4 0.0
25/12:00am 26.4 21.0 -1.4 16 12.7 NE 17 20 9 11 1011.4 1010.4 0.0
 
Date/Time
EST
Temp
°C
App
Temp
°C
Dew
Point
°C
Rel
Hum
%
Delta-T
°C
Wind Press
QNH
hPa
Press
MSL
hPa
Rain since
9am
mm
Dir  Spd
km/h
Gust
km/h
Spd
kts
Gust
kts
24/11:30pm 26.5 20.7 -1.3 16 12.8 NE 19 26 10 14 1011.5 1010.5 0.0
24/11:00pm 22.9 17.8 -1.9 19 10.9 NE 15 17 8 9 1011.5 1010.5 0.0
24/10:30pm 23.8 19.9 -1.2 19 11.3 E 9 11 5 6 1011.4 1010.4 0.0
24/10:00pm 23.0 21.1 0.8 23 10.3 CALM 0 0 0 0 1011.3 1010.3 0.0
24/09:30pm 24.9 21.8 -2.6 16 12.2 SE 4 13 2 7 1011.3 1010.3 0.0
24/09:00pm 26.6 24.4 -1.3 16 12.8 CALM 0 0 0 0 1011.0 1010.0 0.0
24/08:30pm 27.4 24.1 0.2 17 12.9 ESE 7 9 4 5 1010.7 1009.7 0.0
24/08:00pm 28.5 26.3 -1.6 14 14.0 CALM 0 0 0 0 1010.3 1009.3 0.0
24/07:30pm 31.5 28.3 -0.2 13 15.4 NNE 6 7 3 4 1010.1 1009.1 0.0
24/07:00pm 31.8 28.5 0.0 13 15.5 NNE 7 9 4 5 1009.8 1008.8 0.0
24/06:30pm 33.6 31.7 0.3 12 16.5 CALM 0 0 0 0 1009.5 1008.5 0.0
24/06:00pm 34.8 32.8 0.0 11 17.3 CALM 0 0 0 0 1009.2 1008.3 0.0
24/05:30pm 35.9 32.0 0.9 11 17.8 SE 11 20 6 11 1009.0 1008.1 0.0
24/05:00pm 36.9 33.8 0.3 10 18.6 SW 6 11 3 6 1008.9 1008.0 0.0
24/04:30pm 36.7 32.6 0.1 10 18.5 NNE 11 15 6 8 1008.9 1008.0 0.0
24/04:00pm 37.3 33.3 0.6 10 18.8 SSE 11 26 6 14 1008.9 1008.0 0.0
24/03:30pm 37.2 34.2 1.8 11 18.4 E 7 11 4 6 1009.1 1008.2 0.0
24/03:00pm 36.8 33.3 1.5 11 18.2 SW 9 15 5 8 1009.6 1008.6 0.0
24/02:30pm 37.5 32.6 2.1 11 18.5 ESE 17 22 9 12 1010.1 1009.1 0.0
24/02:00pm 36.1 32.2 1.0 11 17.9 NE 11 24 6 13 1010.5 1009.5 0.0
24/01:30pm 36.3 32.6 2.4 12 17.7 N 11 24 6 13 1011.1 1010.1 0.0
24/01:00pm 36.2 32.1 2.3 12 17.7 NW 13 20 7 11 1011.6 1010.6 0.0
24/12:30pm 35.6 31.8 1.8 12 17.4 NNW 11 20 6 11 1012.1 1011.1 0.0
24/12:00pm 35.4 30.5 1.7 12 17.3 N 17 28 9 15 1012.7 1011.7 0.0
24/11:30am 35.7 30.4 1.9 12 17.4 N 19 28 10 15 1013.4 1012.5 0.0
24/11:00am 34.0 28.3 0.6 12 16.7 N 20 32 11 17 1013.9 1013.0 0.0
24/10:30am 33.8 28.1 0.5 12 16.6 N 20 32 11 17 1014.2 1013.3 0.0
24/10:00am 33.2 27.2 1.1 13 16.1 N 22 33 12 18 1014.5 1013.5 0.0
24/09:30am 31.3 24.5 0.6 14 15.1 N 26 35 14 19 1014.9 1013.9 0.0
24/09:00am 30.2 22.2 0.7 15 14.4 N 32 43 17 23 1015.0 1014.0 0.0
24/08:30am 29.1 22.9 2.4 18 13.3 N 24 33 13 18 1015.0 1014.0 0.0
24/08:00am 26.3 22.4 3.5 23 11.4 N 13 17 7 9 1014.8 1013.8 0.0
24/07:30am 23.5 20.4 3.4 27 9.8 NE 9 13 5 7 1014.6 1013.6 0.0
24/07:00am 20.6 17.4 2.9 31 8.4 NE 9 13 5 7 1014.1 1013.2 0.0
24/06:30am 19.9 15.9 2.7 32 8.1 NE 13 15 7 8 1013.8 1012.9 0.0
24/06:00am 20.4 16.8 3.2 32 8.2 NNE 11 15 6 8 1013.5 1012.6 0.0
24/05:30am 19.1 15.6 1.1 30 8.2 NNE 9 11 5 6 1013.4 1012.5 0.0
24/05:00am 20.1 16.9 2.9 32 8.1 N 9 11 5 6 1013.1 1012.2 0.0
24/04:30am 18.7 14.8 1.2 31 7.9 NNW 11 13 6 7 1012.7 1011.7 0.0
24/04:00am 19.5 17.3 1.0 29 8.4 NE 2 15 1 8 1012.3 1011.3 0.0
24/03:30am 20.7 17.6 1.6 28 8.9 NNE 7 9 4 5 1012.0 1011.0 0.0
24/03:00am 21.5 18.2 2.7 29 9.0 NNE 9 11 5 6 1012.1 1011.1 0.0
24/02:30am 21.8 17.7 2.0 27 9.3 NNE 13 15 7 8 1012.1 1011.1 0.0
24/02:00am 23.0 18.9 2.5 26 9.8 NNE 13 17 7 9 1012.2 1011.2 0.0
24/01:30am 23.5 19.0 2.4 25 10.1 NNE 15 17 8 9 1012.3 1011.3 0.0
24/01:00am 24.3 19.8 1.9 23 10.7 NNE 15 19 8 10 1012.5 1011.5 0.0
24/12:30am 26.2 21.0 2.2 21 11.7 NNE 19 26 10 14 1012.8 1011.8 0.0
24/12:00am 27.8 22.5 2.1 19 12.7 NE 19 28 10 15 1012.8 1011.8 0.0
 
Date/Time
EST
Temp
°C
App
Temp
°C
Dew
Point
°C
Rel
Hum
%
Delta-T
°C
Wind Press
QNH
hPa
Press
MSL
hPa
Rain since
9am
mm
Dir  Spd
km/h
Gust
km/h
Spd
kts
Gust
kts
23/11:30pm 27.1 22.6 2.2 20 12.2 NE 15 24 8 13 1012.6 1011.6 0.0
23/11:00pm 27.0 22.9 2.1 20 12.2 NE 13 19 7 10 1012.5 1011.5 0.0
23/10:30pm 27.1 22.2 2.2 20 12.2 NNE 17 24 9 13 1012.5 1011.5 0.0
23/10:00pm 24.7 20.0 0.9 21 11.2 NNE 15 17 8 9 1012.4 1011.4 0.0
23/09:30pm 27.1 23.9 2.9 21 12.0 ESE 9 15 5 8 1012.1 1011.1 0.0
23/09:00pm 26.3 22.1 1.6 20 11.9 E 13 17 7 9 1011.8 1010.8 0.0
23/08:30pm 29.3 25.9 1.7 17 13.6 W 9 11 5 6 1011.6 1010.6 0.0
23/08:00pm 29.2 26.2 0.8 16 13.8 S 6 9 3 5 1011.2 1010.2 0.0
23/07:30pm 29.2 25.6 0.8 16 13.8 W 9 11 5 6 1010.9 1009.9 0.0
23/07:00pm 29.6 24.4 0.2 15 14.2 WNW 17 19 9 10 1010.6 1009.6 0.0
23/06:30pm 31.4 26.9 -0.3 13 15.3 W 13 20 7 11 1010.4 1009.4 0.0
23/06:00pm 34.7 31.2 1.1 12 17.0 WNW 9 13 5 7 1010.3 1009.3 0.0
23/05:30pm 36.8 33.9 1.5 11 18.2 S 6 9 3 5 1010.1 1009.1 0.0
23/05:00pm 37.3 33.5 1.9 11 18.5 NNW 11 19 6 10 1010.2 1009.2 0.0
23/04:30pm 37.1 32.5 1.8 11 18.3 N 15 22 8 12 1010.3 1009.3 0.0
23/04:00pm 38.0 34.7 2.5 11 18.7 NNW 9 17 5 9 1010.4 1009.4 0.0
23/03:30pm 37.2 33.0 1.8 11 18.4 NE 13 24 7 13 1010.6 1009.6 0.0
23/03:00pm 37.6 33.9 2.1 11 18.6 NNW 11 20 6 11 1010.9 1009.9 0.0
23/02:30pm 37.9 33.1 2.4 11 18.7 NNW 17 22 9 12 1011.3 1010.3 0.0
23/02:00pm 36.8 33.6 2.8 12 17.9 SE 9 20 5 11 1011.8 1010.8 0.0
23/01:30pm 37.1 32.5 1.8 11 18.3 NE 15 32 8 17 1012.4 1011.4 0.0
23/01:00pm 36.4 33.3 3.6 13 17.5 NE 9 20 5 11 1012.9 1011.9 0.0
23/12:30pm 37.9 34.2 4.7 13 18.1 N 13 33 7 18 1013.3 1012.4 0.0
23/12:00pm 36.9 32.8 6.0 15 17.1 NNW 17 30 9 16 1013.8 1012.9 0.0
23/11:50am 36.3 31.5 5.5 15 16.9 NW 20 43 11 23 1014.0 1013.1 0.0
23/11:30am 35.9 30.8 6.2 16 16.4 NNW 22 33 12 18 1014.3 1013.4 0.0
23/11:00am 35.7 31.4 7.7 18 15.8 NNW 20 32 11 17 1014.9 1013.9 0.0
23/10:30am 34.0 29.3 7.9 20 14.7 NNW 22 32 12 17 1015.3 1014.3 0.0
23/10:00am 33.1 28.1 7.9 21 14.1 N 24 32 13 17 1015.5 1014.5 0.0
23/09:30am 32.6 28.4 8.1 22 13.7 NNW 20 32 11 17 1015.8 1014.8 0.0
23/09:00am 31.2 25.7 7.6 23 13.0 N 26 33 14 18 1015.9 1014.9 0.0
23/08:30am 29.7 25.3 7.6 25 12.1 N 20 30 11 16 1015.8 1014.8 0.0
23/08:00am 27.2 23.2 8.1 30 10.4 N 19 28 10 15 1015.4 1014.4 0.0
23/07:30am 25.0 21.2 8.9 36 8.8 N 19 26 10 14 1015.1 1014.1 0.0
23/07:00am 20.7 18.0 7.3 42 6.9 N 11 15 6 8 1014.7 1013.7 0.0
23/06:30am 18.0 14.9 5.6 44 6.1 NNW 11 15 6 8 1014.5 1013.5 0.0
23/06:00am 17.2 13.5 2.4 37 6.8 N 11 15 6 8 1013.9 1013.0 0.0
23/05:30am 18.8 14.7 4.2 38 7.0 NNE 15 17 8 9 1013.4 1012.5 0.0
23/05:00am 18.4 14.7 2.3 34 7.4 NNE 11 13 6 7 1013.3 1012.4 0.0
23/04:30am 20.1 15.8 3.3 33 8.0 NNE 15 17 8 9 1012.9 1011.9 0.0
23/04:00am 20.7 16.4 3.0 31 8.4 NNE 15 20 8 11 1012.7 1011.7 0.0
23/03:30am 21.2 16.4 2.5 29 8.9 NE 17 20 9 11 1012.5 1011.5 0.0
23/03:00am 19.0 14.2 -2.6 23 9.1 NE 13 15 7 8 1012.7 1011.7 0.0
23/02:30am 20.9 15.7 -2.9 20 10.1 NE 15 19 8 10 1012.8 1011.8 0.0
23/02:00am 19.7 14.8 -3.2 21 9.6 ENE 13 17 7 9 1012.9 1011.9 0.0
23/01:30am 20.5 16.0 -3.2 20 10.0 ENE 11 15 6 8 1013.0 1012.1 0.0
23/01:00am 21.1 17.0 -2.7 20 10.2 NE 9 11 5 6 1013.0 1012.1 0.0
23/12:30am 21.0 16.6 -2.8 20 10.1 ENE 11 15 6 8 1013.1 1012.2 0.0
23/12:00am 19.7 15.0 -2.0 23 9.3 ENE 13 19 7 10 1013.3 1012.4 0.0
 
Date/Time
EST
Temp
°C
App
Temp
°C
Dew
Point
°C
Rel
Hum
%
Delta-T
°C
Wind Press
QNH
hPa
Press
MSL
hPa
Rain since
9am
mm
Dir  Spd
km/h
Gust
km/h
Spd
kts
Gust
kts
22/11:30pm 21.0 17.4 -2.1 21 10.0 ESE 7 7 4 4 1013.2 1012.3 0.0
22/11:00pm 20.7 17.2 -6.0 16 10.6 SE 4 9 2 5 1013.4 1012.5 0.0
22/10:30pm 21.8 18.6 -3.5 18 10.7 ESE 4 7 2 4 1013.4 1012.5 0.0
22/10:00pm 23.3 19.3 -2.3 18 11.2 ESE 9 13 5 7 1013.2 1012.3 0.0
22/09:30pm 22.5 17.5 -4.5 16 11.3 SSE 13 17 7 9 1013.1 1012.2 0.0
22/09:00pm 26.0 21.6 -2.6 15 12.8 SSE 11 15 6 8 1013.1 1012.2 0.0
22/08:30pm 28.8 25.2 -2.3 13 14.3 ESE 7 7 4 4 1012.9 1011.9 0.0
22/08:00pm 29.1 26.8 -2.1 13 14.4 CALM 0 0 0 0 1012.6 1011.6 0.0
22/07:30pm 29.9 27.6 -2.6 12 15.0 CALM 0 0 0 0 1012.4 1011.4 0.0
22/07:00pm 31.1 28.1 -1.6 12 15.5 SE 4 6 2 3 1012.1 1011.1 0.0
22/06:30pm 32.6 29.2 -1.7 11 16.4 SE 6 7 3 4 1011.8 1010.8 0.0

Other Formats:

Comma delimited format used in spreadsheet applications
http://www.bom.gov.au/fwo/IDQ60801/IDQ60801.94341.axf

JavaScript Object Notation format (JSON) in row-major order
http://www.bom.gov.au/fwo/IDQ60801/IDQ60801.94341.json